Time;durP1;ratioP1;P1;durP2;ratioP2;P2;SDS_P1;SDS_P2;PMS_P1;PMS_P2;Temp;Humidity;BMP_temperature;BMP_pressure;BME280_temperature;BME280_humidity;BME280_pressure;Samples;Min_cycle;Max_cycle;Signal;HPM_P1;HPM_P2
2023/09/19 00:02:17;;;;;;;4.55;1.50;;;;;;;;;;4974766;28;20073;-69
2023/09/19 00:04:43;;;;;;;6.80;1.60;;;;;;;;;;4978107;28;20546;-69
2023/09/19 00:07:09;;;;;;;5.25;2.20;;;;;;;;;;4978492;28;20049;-69
2023/09/19 00:09:37;;;;;;;7.47;1.65;;;;;;;;;;4971529;28;20054;-69
2023/09/19 00:12:06;;;;;;;5.28;1.42;;;;;;;;;;4979001;28;20048;-69
2023/09/19 00:14:35;;;;;;;10.68;1.60;;;;;;;;;;4978539;28;20042;-69
2023/09/19 00:17:08;;;;;;;4.57;1.42;;;;;;;;;;4975477;28;20097;-69
2023/09/19 00:19:37;;;;;;;6.85;1.48;;;;;;;;;;4982537;28;20038;-69
2023/09/19 00:22:03;;;;;;;5.60;1.55;;;;;;;;;;4972621;28;20228;-69
2023/09/19 00:24:29;;;;;;;9.35;1.95;;;;;;;;;;4980198;28;20046;-69
2023/09/19 00:26:55;;;;;;;6.22;1.20;;;;;;;;;;4981465;28;20570;-69
2023/09/19 00:29:21;;;;;;;4.45;1.58;;;;;;;;;;4987849;28;20042;-68
2023/09/19 00:31:46;;;;;;;10.57;1.83;;;;;;;;;;4980780;28;20573;-69
2023/09/19 00:34:12;;;;;;;11.27;1.75;;;;;;;;;;4978763;28;20049;-69
2023/09/19 00:36:39;;;;;;;5.55;1.70;;;;;;;;;;4977424;28;20035;-69
2023/09/19 00:39:05;;;;;;;8.40;1.80;;;;;;;;;;4973434;28;20030;-69
2023/09/19 00:41:32;;;;;;;7.22;1.52;;;;;;;;;;4970524;28;20105;-68
2023/09/19 00:43:58;;;;;;;5.82;1.40;;;;;;;;;;4973429;28;20447;-69
2023/09/19 00:46:23;;;;;;;10.02;1.52;;;;;;;;;;4973200;28;20043;-69
2023/09/19 00:48:49;;;;;;;10.65;1.60;;;;;;;;;;4974961;28;20128;-69
2023/09/19 00:51:19;;;;;;;9.65;1.50;;;;;;;;;;4979591;28;20036;-69
2023/09/19 00:53:46;;;;;;;10.07;1.60;;;;;;;;;;4976983;28;20034;-69
2023/09/19 00:56:12;;;;;;;7.55;1.80;;;;;;;;;;4976533;28;20045;-69
2023/09/19 00:58:38;;;;;;;9.32;1.85;;;;;;;;;;4976560;28;20038;-69
2023/09/19 01:01:06;;;;;;;5.13;1.52;;;;;;;;;;4975029;28;20512;-69
2023/09/19 01:03:33;;;;;;;5.28;1.60;;;;;;;;;;4973861;28;20053;-69
2023/09/19 01:06:00;;;;;;;5.70;1.40;;;;;;;;;;4968595;28;20455;-68
2023/09/19 01:08:29;;;;;;;4.63;1.33;;;;;;;;;;4975152;28;20618;-69
2023/09/19 01:11:13;;;;;;;5.70;1.35;;;;;;;;;;4981338;28;20619;-69
2023/09/19 01:14:02;;;;;;;8.77;2.13;;;;;;;;;;4981070;28;20050;-69
2023/09/19 01:16:45;;;;;;;7.95;2.05;;;;;;;;;;4974995;28;20042;-69
2023/09/19 01:19:33;;;;;;;8.70;1.80;;;;;;;;;;4971212;28;20045;-69
2023/09/19 01:22:13;;;;;;;7.03;1.50;;;;;;;;;;4972080;28;20046;-69
2023/09/19 01:25:12;;;;;;;6.43;1.40;;;;;;;;;;4980812;28;20050;-69
2023/09/19 01:27:43;;;;;;;11.10;2.00;;;;;;;;;;4976629;28;20042;-69
2023/09/19 01:30:17;;;;;;;8.25;1.83;;;;;;;;;;4971168;28;20038;-69
2023/09/19 01:32:43;;;;;;;10.38;2.03;;;;;;;;;;4982446;28;20821;-69
2023/09/19 01:35:12;;;;;;;7.95;1.90;;;;;;;;;;4972663;28;20133;-69
2023/09/19 01:37:38;;;;;;;9.98;2.00;;;;;;;;;;4969497;28;20031;-69
2023/09/19 01:40:14;;;;;;;10.05;2.08;;;;;;;;;;4977051;28;20128;-69
2023/09/19 01:42:51;;;;;;;11.30;1.90;;;;;;;;;;4971021;28;20093;-68
2023/09/19 01:45:43;;;;;;;5.90;1.75;;;;;;;;;;4993872;28;20121;-69
2023/09/19 01:48:47;;;;;;;7.82;2.40;;;;;;;;;;4974591;28;20078;-69
2023/09/19 01:51:25;;;;;;;6.13;1.73;;;;;;;;;;4983129;28;20340;-69
2023/09/19 01:54:04;;;;;;;11.05;1.73;;;;;;;;;;5000849;28;20451;-69
2023/09/19 01:56:35;;;;;;;14.80;2.25;;;;;;;;;;4986507;28;20077;-68
2023/09/19 01:59:09;;;;;;;7.07;1.83;;;;;;;;;;4977497;28;20046;-69
2023/09/19 02:01:36;;;;;;;10.60;2.08;;;;;;;;;;4973800;28;20052;-69
2023/09/19 02:04:02;;;;;;;9.65;1.55;;;;;;;;;;4978699;28;20068;-69
2023/09/19 02:06:28;;;;;;;7.55;1.63;;;;;;;;;;4979460;28;20058;-69
2023/09/19 02:08:54;;;;;;;6.28;1.40;;;;;;;;;;4978304;28;20065;-69
2023/09/19 02:11:19;;;;;;;12.88;1.70;;;;;;;;;;4977786;28;20602;-69
2023/09/19 02:13:45;;;;;;;7.97;1.80;;;;;;;;;;4974384;28;20042;-69
2023/09/19 02:16:11;;;;;;;13.77;1.73;;;;;;;;;;4973557;28;20057;-69
2023/09/19 02:18:36;;;;;;;9.35;1.65;;;;;;;;;;4969458;28;20066;-69
2023/09/19 02:21:03;;;;;;;5.95;1.70;;;;;;;;;;4980728;28;20023;-69
2023/09/19 02:23:30;;;;;;;8.73;1.92;;;;;;;;;;4976662;28;20034;-69
2023/09/19 02:26:03;;;;;;;7.97;1.60;;;;;;;;;;4975557;28;20039;-69
2023/09/19 02:28:32;;;;;;;4.53;1.52;;;;;;;;;;4973600;28;20042;-69
2023/09/19 02:31:00;;;;;;;5.82;1.67;;;;;;;;;;4969514;28;20054;-69
2023/09/19 02:33:26;;;;;;;8.82;1.70;;;;;;;;;;4974973;28;20122;-69
2023/09/19 02:35:57;;;;;;;5.57;1.50;;;;;;;;;;4973927;28;20117;-69
2023/09/19 02:38:24;;;;;;;8.73;1.83;;;;;;;;;;4975432;28;20129;-69
2023/09/19 02:40:50;;;;;;;5.90;1.50;;;;;;;;;;4967634;28;20828;-69
2023/09/19 02:43:16;;;;;;;10.98;1.85;;;;;;;;;;4972229;28;20038;-69
2023/09/19 02:45:42;;;;;;;5.20;1.17;;;;;;;;;;4978238;28;20046;-69
2023/09/19 02:48:08;;;;;;;7.75;1.67;;;;;;;;;;4982025;28;20030;-69
2023/09/19 02:50:33;;;;;;;17.27;2.30;;;;;;;;;;4974093;28;20031;-69
2023/09/19 02:52:59;;;;;;;9.77;2.00;;;;;;;;;;4980024;28;20539;-69
2023/09/19 02:55:24;;;;;;;7.40;1.40;;;;;;;;;;4975668;28;20042;-69
2023/09/19 02:57:52;;;;;;;8.10;2.17;;;;;;;;;;4977535;28;20053;-69
2023/09/19 03:00:21;;;;;;;6.88;1.48;;;;;;;;;;4976684;28;20027;-69
2023/09/19 03:02:49;;;;;;;8.75;1.75;;;;;;;;;;4979222;28;20134;-69
2023/09/19 03:05:14;;;;;;;9.70;1.45;;;;;;;;;;4976774;28;20058;-69
2023/09/19 03:07:39;;;;;;;8.07;1.60;;;;;;;;;;4977963;28;20069;-69
2023/09/19 03:10:08;;;;;;;7.38;2.05;;;;;;;;;;4975818;28;20070;-69
2023/09/19 03:12:34;;;;;;;11.80;2.65;;;;;;;;;;4980073;28;20108;-69
2023/09/19 03:14:59;;;;;;;5.10;1.73;;;;;;;;;;4977404;28;20453;-69
2023/09/19 03:17:25;;;;;;;7.43;1.95;;;;;;;;;;4986636;28;20120;-69
2023/09/19 03:19:50;;;;;;;9.25;1.98;;;;;;;;;;4981272;28;20068;-69
2023/09/19 03:22:16;;;;;;;6.82;1.80;;;;;;;;;;4989698;28;20042;-69
2023/09/19 03:24:43;;;;;;;8.73;1.92;;;;;;;;;;4984149;28;20404;-69
2023/09/19 03:27:10;;;;;;;9.30;1.95;;;;;;;;;;4980262;28;20034;-69
2023/09/19 03:29:35;;;;;;;10.18;2.03;;;;;;;;;;4972773;28;20045;-69
2023/09/19 03:32:01;;;;;;;5.55;1.40;;;;;;;;;;4979262;28;20034;-68
2023/09/19 03:34:27;;;;;;;4.80;1.65;;;;;;;;;;4974424;28;20046;-69
2023/09/19 03:36:52;;;;;;;8.10;1.85;;;;;;;;;;4976647;28;20126;-69
2023/09/19 03:39:17;;;;;;;8.48;1.88;;;;;;;;;;4975867;28;20108;-69
2023/09/19 03:41:43;;;;;;;6.47;1.75;;;;;;;;;;4977176;28;20149;-69
2023/09/19 03:44:08;;;;;;;10.48;1.85;;;;;;;;;;4975577;28;20039;-69
2023/09/19 03:46:35;;;;;;;11.20;2.08;;;;;;;;;;4977504;28;20046;-69
2023/09/19 03:49:00;;;;;;;9.18;1.98;;;;;;;;;;4975499;28;20035;-69
2023/09/19 03:51:26;;;;;;;6.10;2.10;;;;;;;;;;4977245;28;20061;-69
2023/09/19 03:53:51;;;;;;;10.75;1.73;;;;;;;;;;4971555;28;20787;-69
2023/09/19 03:56:17;;;;;;;9.35;1.58;;;;;;;;;;4978265;28;20034;-69
2023/09/19 03:58:42;;;;;;;6.35;1.83;;;;;;;;;;4973080;28;20428;-69
2023/09/19 04:01:07;;;;;;;10.23;1.58;;;;;;;;;;4974595;28;20118;-69
2023/09/19 04:03:46;;;;;;;8.95;1.73;;;;;;;;;;4982693;28;20559;-69
2023/09/19 04:06:15;;;;;;;6.63;1.77;;;;;;;;;;4970094;28;20034;-69
2023/09/19 04:08:41;;;;;;;7.40;1.42;;;;;;;;;;4976294;28;20062;-69
2023/09/19 04:11:06;;;;;;;9.15;1.58;;;;;;;;;;4978129;28;20435;-69
2023/09/19 04:13:31;;;;;;;9.80;1.83;;;;;;;;;;4972766;28;20042;-69
2023/09/19 04:15:57;;;;;;;13.82;1.85;;;;;;;;;;4975277;28;20456;-69
2023/09/19 04:18:23;;;;;;;7.63;1.80;;;;;;;;;;4979302;28;20043;-69
2023/09/19 04:20:52;;;;;;;6.65;1.77;;;;;;;;;;4976568;28;20034;-69
2023/09/19 04:23:19;;;;;;;7.30;1.83;;;;;;;;;;4975147;28;20417;-68
2023/09/19 04:25:45;;;;;;;7.53;1.52;;;;;;;;;;4976843;28;20427;-69
2023/09/19 04:28:11;;;;;;;7.63;2.40;;;;;;;;;;4975457;28;20042;-69
2023/09/19 04:30:37;;;;;;;9.30;2.05;;;;;;;;;;4983066;28;20415;-68
2023/09/19 04:33:03;;;;;;;12.63;1.85;;;;;;;;;;4975146;28;20033;-69
2023/09/19 04:35:31;;;;;;;10.38;1.98;;;;;;;;;;4977363;28;20023;-69
2023/09/19 04:37:57;;;;;;;6.03;1.35;;;;;;;;;;4978081;28;20423;-69
2023/09/19 04:40:24;;;;;;;9.65;2.53;;;;;;;;;;4977406;28;20046;-69
2023/09/19 04:42:56;;;;;;;8.75;1.58;;;;;;;;;;4978676;28;20043;-68
2023/09/19 04:45:22;;;;;;;8.27;1.90;;;;;;;;;;4972279;28;20061;-69
2023/09/19 04:47:48;;;;;;;9.48;1.90;;;;;;;;;;4987295;28;20062;-69
2023/09/19 04:50:13;;;;;;;10.95;2.20;;;;;;;;;;4979742;28;20073;-69
2023/09/19 04:52:41;;;;;;;7.60;1.77;;;;;;;;;;4975080;28;20049;-69
2023/09/19 04:55:09;;;;;;;7.47;1.90;;;;;;;;;;4974163;28;20039;-69
2023/09/19 04:57:34;;;;;;;11.70;2.03;;;;;;;;;;4976676;28;20057;-69
2023/09/19 05:00:00;;;;;;;4.95;1.60;;;;;;;;;;4974768;28;20081;-69
2023/09/19 05:02:25;;;;;;;11.40;2.47;;;;;;;;;;4974297;28;20042;-69
2023/09/19 05:04:51;;;;;;;9.20;1.60;;;;;;;;;;4974806;28;20443;-69
2023/09/19 05:07:17;;;;;;;7.03;1.52;;;;;;;;;;4973893;28;20129;-69
2023/09/19 05:09:42;;;;;;;8.55;2.20;;;;;;;;;;4969967;28;20131;-69
2023/09/19 05:12:10;;;;;;;8.18;1.75;;;;;;;;;;4979492;28;20109;-69
2023/09/19 05:14:36;;;;;;;10.48;1.60;;;;;;;;;;4976560;28;20118;-69
2023/09/19 05:17:02;;;;;;;7.82;1.50;;;;;;;;;;4973276;28;20121;-69
2023/09/19 05:19:28;;;;;;;4.82;1.77;;;;;;;;;;4977783;28;20044;-69
2023/09/19 05:21:54;;;;;;;5.25;1.63;;;;;;;;;;4972103;28;20612;-69
2023/09/19 05:24:23;;;;;;;8.68;1.67;;;;;;;;;;4973216;28;20053;-69
2023/09/19 05:26:48;;;;;;;4.78;1.20;;;;;;;;;;4972314;28;20066;-69
2023/09/19 05:29:14;;;;;;;5.28;1.75;;;;;;;;;;4972555;28;20144;-69
2023/09/19 05:31:40;;;;;;;11.15;1.60;;;;;;;;;;4974040;28;20043;-69
2023/09/19 05:34:06;;;;;;;5.55;1.70;;;;;;;;;;4975078;28;20047;-69
2023/09/19 05:36:31;;;;;;;7.22;1.60;;;;;;;;;;4972620;28;20049;-69
2023/09/19 05:38:57;;;;;;;7.72;1.83;;;;;;;;;;4981681;28;20031;-69
2023/09/19 05:41:23;;;;;;;7.72;2.08;;;;;;;;;;4974040;28;20539;-69
2023/09/19 05:43:50;;;;;;;6.57;1.60;;;;;;;;;;4974882;28;20042;-69
2023/09/19 05:46:15;;;;;;;9.50;1.70;;;;;;;;;;4972420;28;20042;-69
2023/09/19 05:48:41;;;;;;;5.72;1.60;;;;;;;;;;4975036;28;20039;-69
2023/09/19 05:51:06;;;;;;;8.18;1.45;;;;;;;;;;4961273;28;20042;-69
2023/09/19 05:53:32;;;;;;;8.50;1.40;;;;;;;;;;4968652;28;20026;-69
2023/09/19 05:56:00;;;;;;;9.48;1.90;;;;;;;;;;4971303;28;20390;-69
2023/09/19 05:58:26;;;;;;;3.40;1.30;;;;;;;;;;4980039;28;20034;-69
2023/09/19 06:00:52;;;;;;;11.38;1.80;;;;;;;;;;4973278;28;20057;-69
2023/09/19 06:03:18;;;;;;;5.03;1.55;;;;;;;;;;4973635;28;20082;-69
2023/09/19 06:05:46;;;;;;;3.95;1.20;;;;;;;;;;4975954;28;20109;-69
2023/09/19 06:08:11;;;;;;;9.88;2.30;;;;;;;;;;4973915;28;20047;-69
2023/09/19 06:10:37;;;;;;;4.95;1.70;;;;;;;;;;4976419;28;20077;-69
2023/09/19 06:13:09;;;;;;;8.27;1.80;;;;;;;;;;4982978;28;20038;-69
2023/09/19 06:15:35;;;;;;;7.05;1.50;;;;;;;;;;4983578;28;20035;-69
2023/09/19 06:18:04;;;;;;;6.10;1.80;;;;;;;;;;4982119;28;20085;-69
2023/09/19 06:20:30;;;;;;;5.15;1.50;;;;;;;;;;4980149;28;20038;-69
2023/09/19 06:22:56;;;;;;;10.00;1.83;;;;;;;;;;4977715;28;20035;-69
2023/09/19 06:25:21;;;;;;;7.50;1.83;;;;;;;;;;4977458;28;20070;-69
2023/09/19 06:27:53;;;;;;;6.18;1.80;;;;;;;;;;4978292;28;20081;-69
2023/09/19 06:30:19;;;;;;;6.13;1.92;;;;;;;;;;4976168;28;20048;-69
2023/09/19 06:32:45;;;;;;;7.40;1.60;;;;;;;;;;4984102;28;20061;-69
2023/09/19 06:35:12;;;;;;;9.20;2.25;;;;;;;;;;4976728;28;20069;-69
2023/09/19 06:37:38;;;;;;;10.15;2.17;;;;;;;;;;4972917;28;20122;-69
2023/09/19 06:40:15;;;;;;;5.90;1.60;;;;;;;;;;4980117;28;20047;-69
2023/09/19 06:42:42;;;;;;;6.78;1.67;;;;;;;;;;4973631;28;20053;-69
2023/09/19 06:45:11;;;;;;;7.45;2.03;;;;;;;;;;4975871;28;20023;-69
2023/09/19 06:47:36;;;;;;;6.15;1.83;;;;;;;;;;4975233;28;20037;-69
2023/09/19 06:50:02;;;;;;;9.00;1.85;;;;;;;;;;4977703;28;20034;-69
2023/09/19 06:52:28;;;;;;;6.93;1.90;;;;;;;;;;4976958;28;20030;-69
2023/09/19 06:54:53;;;;;;;9.98;2.17;;;;;;;;;;4984789;28;20170;-69
2023/09/19 06:57:19;;;;;;;6.28;1.45;;;;;;;;;;4980836;28;20025;-69
2023/09/19 06:59:45;;;;;;;6.18;1.60;;;;;;;;;;4977843;28;20105;-69
2023/09/19 07:02:10;;;;;;;7.07;2.00;;;;;;;;;;4981485;28;20180;-69
2023/09/19 07:04:36;;;;;;;9.77;2.10;;;;;;;;;;4978040;28;20428;-69
2023/09/19 07:07:01;;;;;;;7.50;1.92;;;;;;;;;;4978376;28;20041;-69
2023/09/19 07:09:27;;;;;;;10.27;2.33;;;;;;;;;;4979471;28;20034;-69
2023/09/19 07:11:53;;;;;;;8.25;2.22;;;;;;;;;;4981986;28;20042;-69
2023/09/19 07:14:19;;;;;;;14.30;2.83;;;;;;;;;;4980838;28;20096;-69
2023/09/19 07:16:45;;;;;;;11.15;2.00;;;;;;;;;;4979261;28;20523;-69
2023/09/19 07:19:10;;;;;;;5.63;1.45;;;;;;;;;;4976802;28;20090;-69
2023/09/19 07:21:37;;;;;;;6.65;1.83;;;;;;;;;;4971922;28;20050;-69
2023/09/19 07:24:03;;;;;;;7.03;1.95;;;;;;;;;;4979244;28;20137;-69
2023/09/19 07:26:29;;;;;;;8.05;2.10;;;;;;;;;;4974079;28;20109;-69
2023/09/19 07:28:54;;;;;;;4.40;1.45;;;;;;;;;;4980037;28;20035;-69
2023/09/19 07:31:22;;;;;;;10.50;1.52;;;;;;;;;;4974360;28;20034;-69
2023/09/19 07:33:48;;;;;;;10.85;1.80;;;;;;;;;;4977107;28;20053;-69
2023/09/19 07:36:13;;;;;;;9.93;2.00;;;;;;;;;;4978119;28;20031;-69
2023/09/19 07:38:43;;;;;;;11.43;1.73;;;;;;;;;;4986522;28;20030;-69
2023/09/19 07:41:09;;;;;;;12.38;2.30;;;;;;;;;;4985199;28;20061;-69
2023/09/19 07:43:35;;;;;;;14.00;2.20;;;;;;;;;;4977195;28;20030;-69
2023/09/19 07:46:11;;;;;;;8.63;2.15;;;;;;;;;;4975614;28;20035;-69
2023/09/19 07:48:38;;;;;;;6.40;1.50;;;;;;;;;;4974366;28;20091;-69
2023/09/19 07:51:08;;;;;;;11.73;1.33;;;;;;;;;;4973163;28;20018;-69
2023/09/19 07:53:34;;;;;;;6.35;1.60;;;;;;;;;;4979035;28;20034;-69
2023/09/19 07:56:07;;;;;;;7.53;2.20;;;;;;;;;;4977724;28;20090;-69
2023/09/19 07:58:33;;;;;;;8.32;1.80;;;;;;;;;;4972589;28;20062;-69
2023/09/19 08:01:06;;;;;;;7.18;1.42;;;;;;;;;;4978289;28;20034;-69
2023/09/19 08:03:37;;;;;;;5.95;1.70;;;;;;;;;;4977889;28;20035;-69
2023/09/19 08:06:04;;;;;;;11.35;1.80;;;;;;;;;;4976779;28;20023;-69
2023/09/19 08:08:29;;;;;;;5.78;1.67;;;;;;;;;;4981631;28;20050;-69
2023/09/19 08:10:56;;;;;;;11.43;1.98;;;;;;;;;;4983973;28;20035;-69
2023/09/19 08:13:25;;;;;;;8.13;1.48;;;;;;;;;;4996931;28;20054;-69
2023/09/19 08:15:53;;;;;;;8.88;1.75;;;;;;;;;;4973087;28;20042;-69
2023/09/19 08:18:18;;;;;;;7.95;1.42;;;;;;;;;;4979994;28;20046;-69
2023/09/19 08:20:50;;;;;;;12.45;1.63;;;;;;;;;;4976585;28;20030;-69
2023/09/19 08:23:17;;;;;;;10.35;1.60;;;;;;;;;;4974856;28;20035;-69
2023/09/19 08:25:42;;;;;;;5.93;1.50;;;;;;;;;;4977209;28;20053;-69
2023/09/19 08:28:12;;;;;;;7.47;1.50;;;;;;;;;;4974481;28;20038;-69
2023/09/19 08:30:40;;;;;;;5.38;1.20;;;;;;;;;;4978944;28;20038;-69
2023/09/19 08:33:06;;;;;;;4.85;1.63;;;;;;;;;;4973729;28;20073;-69
2023/09/19 08:35:32;;;;;;;4.93;1.35;;;;;;;;;;4977004;28;20026;-70
2023/09/19 08:37:57;;;;;;;5.75;1.80;;;;;;;;;;4969943;28;20054;-70
2023/09/19 08:40:23;;;;;;;7.35;1.50;;;;;;;;;;4976398;28;20052;-70
2023/09/19 08:42:53;;;;;;;8.73;1.70;;;;;;;;;;4970880;28;20046;-70
2023/09/19 08:45:21;;;;;;;9.88;2.42;;;;;;;;;;4972811;28;20117;-70
2023/09/19 08:48:25;;;;;;;5.80;1.52;;;;;;;;;;4972763;28;20564;-70
2023/09/19 08:51:01;;;;;;;7.97;1.50;;;;;;;;;;4969995;28;20035;-70
2023/09/19 08:53:55;;;;;;;4.57;1.23;;;;;;;;;;4973126;28;20049;-72
2023/09/19 08:56:22;;;;;;;6.68;1.40;;;;;;;;;;4974405;28;20046;-69
2023/09/19 08:58:53;;;;;;;5.38;1.38;;;;;;;;;;4969856;28;21294;-69
2023/09/19 09:01:24;;;;;;;5.90;1.60;;;;;;;;;;4976605;28;20052;-69
2023/09/19 09:03:52;;;;;;;5.43;1.20;;;;;;;;;;4982579;28;20046;-69
2023/09/19 09:06:20;;;;;;;11.95;1.63;;;;;;;;;;4984681;28;20294;-70
2023/09/19 09:08:46;;;;;;;5.32;1.23;;;;;;;;;;4984796;28;20026;-70
2023/09/19 09:11:13;;;;;;;8.02;1.42;;;;;;;;;;4978859;28;20117;-70
2023/09/19 09:13:41;;;;;;;5.43;1.20;;;;;;;;;;4969999;28;20037;-70
2023/09/19 09:16:08;;;;;;;7.72;1.60;;;;;;;;;;4971385;28;20046;-69
2023/09/19 09:18:34;;;;;;;5.10;1.40;;;;;;;;;;4975591;28;20034;-69
2023/09/19 09:20:59;;;;;;;2.72;1.40;;;;;;;;;;4972339;28;20077;-69
2023/09/19 09:23:28;;;;;;;5.70;1.17;;;;;;;;;;4973137;28;20038;-69
2023/09/19 09:25:56;;;;;;;6.10;1.05;;;;;;;;;;4979117;28;20495;-70
2023/09/19 09:28:23;;;;;;;7.13;1.38;;;;;;;;;;4978276;28;20038;-69
2023/09/19 09:30:50;;;;;;;9.05;1.50;;;;;;;;;;4975205;28;20515;-70
2023/09/19 09:33:16;;;;;;;4.20;1.45;;;;;;;;;;4970326;28;20531;-70
2023/09/19 09:36:00;;;;;;;5.75;1.45;;;;;;;;;;4974533;28;20034;-69
2023/09/19 09:38:48;;;;;;;7.00;1.50;;;;;;;;;;4974273;28;20046;-69
2023/09/19 09:41:27;;;;;;;5.57;1.23;;;;;;;;;;4967627;28;20448;-69
2023/09/19 09:43:53;;;;;;;3.92;2.00;;;;;;;;;;4972368;28;20043;-70
2023/09/19 09:51:45;;;;;;;4.95;1.20;;;;;;;;;;4974053;28;20100;-70
2023/09/19 09:54:12;;;;;;;5.25;1.23;;;;;;;;;;4970465;28;20467;-70
2023/09/19 09:56:58;;;;;;;4.57;0.93;;;;;;;;;;4973025;28;20496;-70
2023/09/19 09:59:46;;;;;;;7.13;0.98;;;;;;;;;;4973990;28;20745;-70
2023/09/19 10:02:25;;;;;;;4.72;1.48;;;;;;;;;;4976319;28;20431;-70
2023/09/19 10:04:52;;;;;;;7.38;1.10;;;;;;;;;;4967516;28;20540;-70
2023/09/19 10:07:40;;;;;;;2.90;1.30;;;;;;;;;;4970562;28;20047;-69
2023/09/19 10:10:28;;;;;;;7.95;1.40;;;;;;;;;;4975631;28;20531;-69
2023/09/19 10:12:56;;;;;;;2.67;0.80;;;;;;;;;;4974299;28;20057;-69
2023/09/19 10:15:26;;;;;;;3.95;0.90;;;;;;;;;;4972427;28;20090;-69
2023/09/19 10:17:58;;;;;;;4.55;0.80;;;;;;;;;;4980189;28;20026;-69
2023/09/19 10:20:33;;;;;;;3.53;0.95;;;;;;;;;;4970760;28;20085;-69
2023/09/19 10:23:09;;;;;;;6.35;1.10;;;;;;;;;;4973645;28;20524;-69
2023/09/19 10:25:36;;;;;;;3.35;0.80;;;;;;;;;;4977988;28;20611;-69
2023/09/19 10:28:03;;;;;;;5.60;1.20;;;;;;;;;;4974766;28;20026;-69
2023/09/19 10:30:30;;;;;;;1.88;1.00;;;;;;;;;;4980258;28;20030;-69
2023/09/19 10:33:04;;;;;;;3.20;0.95;;;;;;;;;;4989581;28;20019;-69
2023/09/19 10:35:29;;;;;;;4.38;0.90;;;;;;;;;;4973417;28;20665;-69
2023/09/19 10:37:59;;;;;;;5.40;0.93;;;;;;;;;;4982713;28;20034;-69
2023/09/19 10:40:30;;;;;;;4.80;1.00;;;;;;;;;;4975751;28;20047;-69
2023/09/19 10:43:05;;;;;;;2.58;1.20;;;;;;;;;;4975601;28;20042;-71
2023/09/19 10:45:32;;;;;;;2.70;1.13;;;;;;;;;;4972082;28;20093;-70
2023/09/19 10:47:59;;;;;;;12.43;1.20;;;;;;;;;;4982009;28;20085;-70
2023/09/19 10:50:27;;;;;;;3.38;1.13;;;;;;;;;;4976398;28;20475;-70
2023/09/19 10:53:04;;;;;;;6.13;1.33;;;;;;;;;;4978498;28;20078;-70
2023/09/19 10:55:35;;;;;;;2.28;0.70;;;;;;;;;;4980150;28;20066;-70
2023/09/19 10:58:01;;;;;;;4.20;0.90;;;;;;;;;;4968058;28;20039;-69
2023/09/19 11:00:27;;;;;;;6.13;1.00;;;;;;;;;;4973114;28;20093;-68
2023/09/19 11:03:23;;;;;;;3.38;1.00;;;;;;;;;;4972318;28;20167;-67
2023/09/19 11:06:13;;;;;;;3.95;0.90;;;;;;;;;;4970637;28;20046;-67
2023/09/19 11:08:57;;;;;;;5.00;1.00;;;;;;;;;;4969535;28;20432;-67
2023/09/19 11:11:40;;;;;;;5.80;1.17;;;;;;;;;;4972808;28;20035;-67
2023/09/19 11:14:25;;;;;;;5.22;0.98;;;;;;;;;;4974353;28;20129;-67
2023/09/19 11:17:13;;;;;;;4.53;0.90;;;;;;;;;;4971901;28;20686;-67
2023/09/19 11:22:56;;;;;;;4.07;1.17;;;;;;;;;;4977532;28;20572;-67
2023/09/19 11:25:31;;;;;;;6.00;1.20;;;;;;;;;;4973099;28;20182;-68
2023/09/19 11:28:06;;;;;;;7.07;1.00;;;;;;;;;;4982954;28;20122;-67
2023/09/19 11:30:32;;;;;;;2.65;0.73;;;;;;;;;;4975990;28;20035;-67
2023/09/19 11:33:23;;;;;;;3.17;0.80;;;;;;;;;;4975332;28;20022;-67
2023/09/19 11:36:04;;;;;;;3.45;0.90;;;;;;;;;;4975824;28;20489;-67
2023/09/19 11:38:42;;;;;;;3.13;0.93;;;;;;;;;;4975784;28;20138;-67
2023/09/19 11:41:26;;;;;;;9.90;0.90;;;;;;;;;;4974095;28;20054;-68
2023/09/19 11:43:55;;;;;;;3.83;0.80;;;;;;;;;;4975373;28;20158;-68
2023/09/19 11:46:23;;;;;;;2.83;0.90;;;;;;;;;;4974149;28;20073;-67
2023/09/19 11:48:50;;;;;;;7.22;1.70;;;;;;;;;;4976003;28;20100;-67
2023/09/19 11:51:27;;;;;;;6.72;0.90;;;;;;;;;;4974206;28;20156;-69
2023/09/19 11:53:55;;;;;;;3.53;1.00;;;;;;;;;;4978845;28;20062;-69
2023/09/19 11:56:27;;;;;;;3.72;1.00;;;;;;;;;;4984647;28;20041;-69
2023/09/19 11:58:54;;;;;;;3.72;0.82;;;;;;;;;;4983756;28;20100;-69
2023/09/19 12:01:28;;;;;;;4.95;1.10;;;;;;;;;;4975572;28;20038;-69
2023/09/19 12:03:57;;;;;;;3.50;0.90;;;;;;;;;;4978793;28;20034;-69
2023/09/19 12:06:23;;;;;;;4.30;1.02;;;;;;;;;;4973446;28;20675;-69
2023/09/19 12:08:50;;;;;;;2.22;0.77;;;;;;;;;;4977507;28;21129;-69
2023/09/19 12:11:17;;;;;;;5.80;1.13;;;;;;;;;;4983690;28;20038;-69
2023/09/19 12:13:44;;;;;;;3.55;0.95;;;;;;;;;;4971854;28;20459;-69
2023/09/19 12:16:17;;;;;;;2.17;0.85;;;;;;;;;;4979581;28;20511;-69
2023/09/19 12:18:44;;;;;;;6.65;1.05;;;;;;;;;;4976897;28;20432;-69
2023/09/19 12:21:36;;;;;;;2.38;0.90;;;;;;;;;;4975947;28;20037;-69
2023/09/19 12:24:06;;;;;;;4.63;0.93;;;;;;;;;;4975667;28;20522;-69
2023/09/19 12:26:43;;;;;;;6.47;0.98;;;;;;;;;;4972813;28;20029;-69
2023/09/19 12:29:14;;;;;;;2.25;0.65;;;;;;;;;;4972723;28;20339;-69
2023/09/19 12:31:50;;;;;;;3.38;0.90;;;;;;;;;;4975339;28;20049;-69
2023/09/19 12:34:19;;;;;;;1.27;0.82;;;;;;;;;;4974098;28;20121;-69
2023/09/19 12:36:45;;;;;;;5.93;1.05;;;;;;;;;;4974424;28;20704;-69
2023/09/19 12:39:10;;;;;;;1.60;1.10;;;;;;;;;;4974492;28;20065;-68
2023/09/19 12:41:37;;;;;;;1.80;0.80;;;;;;;;;;4975836;28;20060;-69
2023/09/19 12:44:09;;;;;;;2.50;1.00;;;;;;;;;;4972694;28;20547;-69
2023/09/19 12:46:35;;;;;;;5.00;1.13;;;;;;;;;;4974353;28;20096;-69
2023/09/19 12:49:19;;;;;;;4.10;0.88;;;;;;;;;;4973883;28;20648;-69
2023/09/19 12:51:47;;;;;;;2.90;0.82;;;;;;;;;;4973610;28;20601;-69
2023/09/19 12:54:14;;;;;;;2.90;1.08;;;;;;;;;;4972210;28;20033;-69
2023/09/19 12:56:44;;;;;;;4.80;1.88;;;;;;;;;;4989924;28;20032;-69
2023/09/19 12:59:13;;;;;;;5.50;1.25;;;;;;;;;;4973188;28;20035;-69
2023/09/19 13:01:45;;;;;;;3.47;1.02;;;;;;;;;;4968973;28;20078;-69
2023/09/19 13:04:26;;;;;;;8.15;1.23;;;;;;;;;;4977196;28;20590;-69
2023/09/19 13:06:52;;;;;;;2.25;1.23;;;;;;;;;;4971027;28;20037;-69
2023/09/19 13:09:20;;;;;;;7.47;1.30;;;;;;;;;;4971354;28;20026;-69
2023/09/19 13:11:47;;;;;;;3.58;1.20;;;;;;;;;;4981246;28;20033;-69
2023/09/19 13:14:18;;;;;;;7.38;1.48;;;;;;;;;;4973117;28;20030;-69
2023/09/19 13:17:05;;;;;;;6.43;1.52;;;;;;;;;;4976953;28;20050;-68
2023/09/19 13:19:41;;;;;;;9.43;1.00;;;;;;;;;;4976041;28;20073;-69
2023/09/19 13:22:38;;;;;;;4.03;1.20;;;;;;;;;;4980877;28;20042;-68
2023/09/19 13:25:13;;;;;;;3.75;1.30;;;;;;;;;;4979964;28;20524;-69
2023/09/19 13:27:39;;;;;;;3.67;1.50;;;;;;;;;;4973290;28;20034;-69
2023/09/19 13:30:05;;;;;;;4.97;1.25;;;;;;;;;;4971154;28;20026;-69
2023/09/19 13:32:32;;;;;;;5.75;1.20;;;;;;;;;;4977117;28;20026;-69
2023/09/19 13:34:58;;;;;;;3.35;1.10;;;;;;;;;;4971698;28;20066;-69
2023/09/19 13:37:23;;;;;;;3.97;1.40;;;;;;;;;;4971444;28;20063;-69
2023/09/19 13:39:49;;;;;;;4.57;1.20;;;;;;;;;;4973612;28;20044;-69
2023/09/19 13:42:15;;;;;;;5.32;1.08;;;;;;;;;;4975818;28;20566;-69
2023/09/19 13:44:41;;;;;;;5.95;1.23;;;;;;;;;;4976171;28;20067;-69
2023/09/19 13:47:09;;;;;;;4.88;1.30;;;;;;;;;;4973109;28;20063;-69
2023/09/19 13:49:35;;;;;;;4.75;1.27;;;;;;;;;;4974932;28;20038;-68
2023/09/19 13:52:03;;;;;;;3.10;1.17;;;;;;;;;;4972987;28;20464;-69
2023/09/19 13:54:29;;;;;;;3.10;1.20;;;;;;;;;;4973502;28;20049;-69
2023/09/19 13:56:55;;;;;;;5.10;1.15;;;;;;;;;;4980810;28;20033;-69
2023/09/19 13:59:23;;;;;;;3.17;1.42;;;;;;;;;;4974310;28;20042;-69
2023/09/19 14:01:50;;;;;;;6.35;1.48;;;;;;;;;;4971404;28;20042;-69
2023/09/19 14:04:15;;;;;;;7.43;1.60;;;;;;;;;;4976248;28;20042;-69
2023/09/19 14:06:45;;;;;;;3.90;1.23;;;;;;;;;;4970704;28;20043;-69
2023/09/19 14:09:11;;;;;;;7.43;1.20;;;;;;;;;;4971388;28;20034;-69
2023/09/19 14:11:37;;;;;;;5.60;1.25;;;;;;;;;;4981672;28;20030;-69
2023/09/19 14:14:04;;;;;;;2.60;1.17;;;;;;;;;;4970426;28;20035;-69
2023/09/19 14:16:30;;;;;;;6.40;1.33;;;;;;;;;;4976226;28;20121;-69
2023/09/19 14:18:56;;;;;;;5.70;1.27;;;;;;;;;;4975820;28;20038;-69
2023/09/19 14:21:22;;;;;;;4.03;1.48;;;;;;;;;;4971734;28;20046;-69
2023/09/19 14:23:49;;;;;;;2.88;1.25;;;;;;;;;;4975159;28;20139;-69
2023/09/19 14:26:15;;;;;;;3.22;1.20;;;;;;;;;;4972713;28;20422;-68
2023/09/19 14:28:40;;;;;;;4.20;1.65;;;;;;;;;;4973006;28;20603;-68
2023/09/19 14:31:09;;;;;;;4.22;1.30;;;;;;;;;;4973272;28;20046;-69
2023/09/19 14:33:35;;;;;;;5.38;1.98;;;;;;;;;;4977294;28;20515;-68
2023/09/19 14:36:10;;;;;;;6.15;1.50;;;;;;;;;;4979315;28;20030;-68
2023/09/19 14:38:36;;;;;;;4.57;1.25;;;;;;;;;;4973880;28;20042;-68
2023/09/19 14:41:03;;;;;;;4.47;1.30;;;;;;;;;;4975377;28;20073;-69
2023/09/19 14:43:30;;;;;;;3.65;1.20;;;;;;;;;;4978786;28;20088;-68
2023/09/19 14:45:57;;;;;;;4.60;1.63;;;;;;;;;;4982543;28;20064;-69
2023/09/19 14:48:25;;;;;;;5.88;1.45;;;;;;;;;;4991700;28;20520;-69
2023/09/19 14:50:52;;;;;;;5.20;1.50;;;;;;;;;;4980031;28;20061;-69
2023/09/19 14:53:17;;;;;;;3.50;1.10;;;;;;;;;;4972880;28;20089;-69
2023/09/19 14:55:44;;;;;;;3.38;1.13;;;;;;;;;;4983349;28;20050;-68
2023/09/19 14:58:10;;;;;;;5.80;1.40;;;;;;;;;;4975892;28;20034;-68
2023/09/19 15:00:36;;;;;;;4.65;1.33;;;;;;;;;;4980938;28;20133;-68
2023/09/19 15:03:02;;;;;;;5.47;1.83;;;;;;;;;;4975811;28;20068;-68